Time;durP1;ratioP1;P1;durP2;ratioP2;P2;SDS_P1;SDS_P2;PMS_P1;PMS_P2;Temp;Humidity;BMP_temperature;BMP_pressure;BME280_temperature;BME280_humidity;BME280_pressure;Samples;Min_cycle;Max_cycle;Signal;HPM_P1;HPM_P2
2022/09/27 00:00:31;;;;;;;0.00;0.00;;;11.20;99.90;;;;;;5032999;28;20124;-73
2022/09/27 00:02:56;;;;;;;0.10;0.10;;;11.30;99.90;;;;;;5030813;28;20083;-73
2022/09/27 00:05:22;;;;;;;0.10;0.10;;;11.30;99.90;;;;;;5036095;28;20052;-73
2022/09/27 00:07:48;;;;;;;0.10;0.10;;;11.30;99.90;;;;;;5022535;28;20048;-74
2022/09/27 00:10:14;;;;;;;0.00;0.00;;;11.30;99.90;;;;;;5030175;28;20065;-74
2022/09/27 00:12:39;;;;;;;0.10;0.10;;;11.30;99.90;;;;;;5029099;28;20458;-75
2022/09/27 00:15:06;;;;;;;0.10;0.10;;;11.30;99.90;;;;;;5023907;28;20041;-74
2022/09/27 00:17:32;;;;;;;0.10;0.10;;;11.30;99.90;;;;;;5021386;28;20045;-74
2022/09/27 00:19:59;;;;;;;0.10;0.10;;;11.30;99.90;;;;;;5028516;28;20090;-74
2022/09/27 00:22:25;;;;;;;0.10;0.10;;;11.30;99.90;;;;;;5022605;28;20037;-74
2022/09/27 00:24:51;;;;;;;0.00;0.00;;;11.30;99.90;;;;;;5029434;28;20045;-74
2022/09/27 00:27:17;;;;;;;0.08;0.08;;;11.30;99.90;;;;;;5037886;28;20045;-74
2022/09/27 00:29:44;;;;;;;0.00;0.00;;;11.40;99.90;;;;;;5024808;28;20037;-74
2022/09/27 00:32:10;;;;;;;0.10;0.10;;;11.40;99.90;;;;;;5017919;28;20465;-74
2022/09/27 00:34:36;;;;;;;0.10;0.10;;;11.30;99.90;;;;;;5024245;28;20049;-73
2022/09/27 00:37:02;;;;;;;0.10;0.10;;;11.30;99.90;;;;;;5030522;28;20497;-73
2022/09/27 00:39:27;;;;;;;0.00;0.00;;;11.30;99.90;;;;;;5035776;28;20390;-73
2022/09/27 00:41:53;;;;;;;0.10;0.10;;;11.30;99.90;;;;;;5026996;28;20049;-74
2022/09/27 00:44:28;;;;;;;0.10;0.10;;;11.30;99.90;;;;;;5026710;28;20049;-73
2022/09/27 00:47:06;;;;;;;0.10;0.10;;;11.30;99.90;;;;;;5019382;28;20046;-72
2022/09/27 00:49:37;;;;;;;0.10;0.10;;;11.20;99.90;;;;;;5026713;28;20091;-73
2022/09/27 00:52:18;;;;;;;0.05;0.05;;;11.30;99.90;;;;;;5020769;28;20123;-73
2022/09/27 00:54:48;;;;;;;0.10;0.10;;;11.20;99.90;;;;;;5024702;28;20374;-73
2022/09/27 00:57:16;;;;;;;0.00;0.00;;;11.20;99.90;;;;;;5019956;28;20060;-73
2022/09/27 00:59:49;;;;;;;0.10;0.10;;;11.20;99.90;;;;;;5028627;28;20053;-73
2022/09/27 01:02:14;;;;;;;0.10;0.10;;;11.20;99.90;;;;;;5024759;28;20484;-73
2022/09/27 01:04:42;;;;;;;0.10;0.10;;;11.20;99.90;;;;;;5027400;28;20083;-73
2022/09/27 01:07:08;;;;;;;0.10;0.10;;;11.10;99.90;;;;;;5028737;28;20045;-73
2022/09/27 01:09:34;;;;;;;0.00;0.00;;;11.20;99.90;;;;;;5029529;28;20045;-73
2022/09/27 01:12:04;;;;;;;2.85;0.85;;;11.30;99.90;;;;;;5026463;28;20144;-73
2022/09/27 01:14:35;;;;;;;0.10;0.10;;;11.20;99.90;;;;;;5030587;28;20081;-73
2022/09/27 01:17:20;;;;;;;0.10;0.10;;;11.30;99.90;;;;;;5027320;28;20043;-73
2022/09/27 01:20:17;;;;;;;0.10;0.10;;;11.30;99.90;;;;;;5031886;28;20565;-73
2022/09/27 01:23:19;;;;;;;0.00;0.00;;;11.30;99.90;;;;;;5026897;28;20052;-73
2022/09/27 01:26:13;;;;;;;0.10;0.10;;;11.30;99.90;;;;;;5020038;28;20506;-73
2022/09/27 01:29:03;;;;;;;0.10;0.10;;;11.30;99.90;;;;;;5037535;28;20053;-73
2022/09/27 01:31:54;;;;;;;0.10;0.10;;;11.30;99.90;;;;;;5014440;28;20045;-73
2022/09/27 01:34:33;;;;;;;0.13;0.13;;;11.20;99.90;;;;;;5026621;28;20378;-74
2022/09/27 01:37:00;;;;;;;1.55;1.40;;;11.20;99.90;;;;;;5020115;28;20561;-73
2022/09/27 01:39:53;;;;;;;0.10;0.10;;;11.20;99.90;;;;;;5029014;28;20053;-73
2022/09/27 01:42:51;;;;;;;0.10;0.10;;;11.20;99.90;;;;;;5025410;28;20061;-73
2022/09/27 01:45:22;;;;;;;0.10;0.10;;;11.10;99.90;;;;;;5028439;28;20046;-73
2022/09/27 01:47:55;;;;;;;0.10;0.10;;;11.10;99.90;;;;;;5025325;28;20058;-73
2022/09/27 01:50:42;;;;;;;0.10;0.10;;;11.10;99.90;;;;;;5028065;28;20548;-74
2022/09/27 01:53:30;;;;;;;0.00;0.00;;;11.10;99.90;;;;;;5018917;28;20069;-73
2022/09/27 01:55:56;;;;;;;0.10;0.10;;;11.10;99.90;;;;;;5045458;28;20044;-74
2022/09/27 01:58:36;;;;;;;0.10;0.10;;;11.10;99.90;;;;;;5041480;28;20041;-73
2022/09/27 02:01:03;;;;;;;0.10;0.10;;;11.10;99.90;;;;;;5048005;28;20554;-74
2022/09/27 02:03:39;;;;;;;0.10;0.10;;;11.10;99.90;;;;;;5027064;28;20080;-74
2022/09/27 02:06:11;;;;;;;0.08;0.08;;;11.10;99.90;;;;;;5007916;28;20050;-73
2022/09/27 02:08:37;;;;;;;0.10;0.10;;;11.10;99.90;;;;;;5034442;28;20045;-74
2022/09/27 02:11:08;;;;;;;1.38;0.47;;;11.20;99.90;;;;;;5034829;28;20049;-73
2022/09/27 02:13:51;;;;;;;0.10;0.10;;;11.20;99.90;;;;;;5020925;28;20132;-74
2022/09/27 02:16:36;;;;;;;0.00;0.00;;;11.10;99.90;;;;;;5043631;28;20053;-73
2022/09/27 02:19:21;;;;;;;0.10;0.10;;;11.10;99.90;;;;;;5028819;28;20041;-73
2022/09/27 02:22:07;;;;;;;0.10;0.10;;;11.10;99.90;;;;;;5023101;28;20049;-73
2022/09/27 02:24:49;;;;;;;0.10;0.10;;;11.00;99.90;;;;;;5018094;28;20053;-73
2022/09/27 02:27:23;;;;;;;0.10;0.10;;;11.00;99.90;;;;;;5024087;28;20042;-73
2022/09/27 02:29:57;;;;;;;0.10;0.10;;;10.80;99.90;;;;;;5031337;28;20046;-72
2022/09/27 02:32:23;;;;;;;0.10;0.10;;;10.80;99.90;;;;;;5016251;28;20053;-72
2022/09/27 02:34:50;;;;;;;0.00;0.00;;;10.90;99.90;;;;;;5025354;28;20164;-72
2022/09/27 02:37:15;;;;;;;0.10;0.10;;;10.90;99.90;;;;;;5031094;28;20080;-73
2022/09/27 02:39:42;;;;;;;0.10;0.10;;;10.90;99.90;;;;;;5035530;28;20073;-74
2022/09/27 02:42:08;;;;;;;0.10;0.10;;;10.90;99.90;;;;;;5032186;28;20037;-73
2022/09/27 02:44:33;;;;;;;0.10;0.10;;;10.90;99.90;;;;;;5026680;28;20053;-74
2022/09/27 02:47:08;;;;;;;0.22;0.22;;;10.90;99.90;;;;;;5029717;28;20037;-74
2022/09/27 02:49:39;;;;;;;0.00;0.00;;;10.90;99.90;;;;;;5040940;28;20378;-74
2022/09/27 02:52:11;;;;;;;0.10;0.10;;;10.90;99.90;;;;;;5031766;28;20079;-74
2022/09/27 02:54:45;;;;;;;0.00;0.00;;;10.90;99.90;;;;;;5027756;28;20080;-74
2022/09/27 02:57:14;;;;;;;;;;;10.80;99.90;;;;;;5034205;28;20149;-74
2022/09/27 03:00:00;;;;;;;0.10;0.10;;;10.80;99.90;;;;;;5021090;28;19921;-74
2022/09/27 03:02:40;;;;;;;0.03;0.03;;;10.80;99.90;;;;;;5042121;28;20477;-75
2022/09/27 03:05:27;;;;;;;0.10;0.10;;;10.80;99.90;;;;;;5012932;28;20054;-74
2022/09/27 03:07:53;;;;;;;0.10;0.10;;;10.70;99.90;;;;;;5029892;28;20053;-74
2022/09/27 03:10:22;;;;;;;0.35;0.35;;;10.70;99.90;;;;;;5036735;28;20052;-74
2022/09/27 03:12:49;;;;;;;0.10;0.10;;;10.70;99.90;;;;;;5038093;28;20051;-74
2022/09/27 03:15:15;;;;;;;0.10;0.10;;;10.60;99.90;;;;;;5031215;28;20045;-74
2022/09/27 03:17:40;;;;;;;0.00;0.00;;;10.60;99.90;;;;;;5033750;28;20389;-74
2022/09/27 03:20:07;;;;;;;0.00;0.00;;;10.60;99.90;;;;;;5015865;28;20048;-74
2022/09/27 03:22:33;;;;;;;0.10;0.10;;;10.60;99.90;;;;;;5033222;28;20049;-74
2022/09/27 03:24:59;;;;;;;0.10;0.10;;;10.50;99.90;;;;;;5031043;28;20048;-73
2022/09/27 03:27:25;;;;;;;0.10;0.10;;;10.50;99.90;;;;;;5031016;28;20044;-74
2022/09/27 03:29:50;;;;;;;0.10;0.10;;;10.50;99.90;;;;;;5037991;28;20408;-74
2022/09/27 03:32:16;;;;;;;0.00;0.00;;;10.60;99.90;;;;;;5046082;28;20050;-74
2022/09/27 03:34:41;;;;;;;0.08;0.08;;;10.50;99.90;;;;;;5030788;28;20111;-74
2022/09/27 03:37:07;;;;;;;0.10;0.10;;;10.60;99.90;;;;;;5032645;28;20044;-74
2022/09/27 03:39:33;;;;;;;0.10;0.10;;;10.70;99.90;;;;;;5040517;28;20558;-73
2022/09/27 03:41:59;;;;;;;0.00;0.00;;;10.70;99.90;;;;;;5031441;28;20052;-74
2022/09/27 03:44:24;;;;;;;0.10;0.10;;;10.70;99.90;;;;;;5016982;28;20054;-74
2022/09/27 03:46:50;;;;;;;0.10;0.10;;;10.80;99.90;;;;;;5029770;28;20045;-74
2022/09/27 03:49:16;;;;;;;0.00;0.00;;;10.70;99.90;;;;;;5028929;28;20049;-74
2022/09/27 03:51:42;;;;;;;0.00;0.00;;;10.70;99.90;;;;;;5030957;28;20081;-74
2022/09/27 03:54:07;;;;;;;0.10;0.10;;;10.70;99.90;;;;;;5026523;28;20076;-74
2022/09/27 03:56:33;;;;;;;0.10;0.10;;;10.80;99.90;;;;;;5038077;28;20045;-75
2022/09/27 03:58:58;;;;;;;0.20;0.20;;;10.70;99.90;;;;;;5041222;28;20045;-75
2022/09/27 04:01:25;;;;;;;0.10;0.10;;;10.80;99.90;;;;;;5020407;28;20535;-75
2022/09/27 04:03:51;;;;;;;0.10;0.10;;;10.70;99.90;;;;;;5034090;28;20112;-75
2022/09/27 04:06:17;;;;;;;0.15;0.15;;;10.70;99.90;;;;;;5038957;28;20093;-75
2022/09/27 04:08:43;;;;;;;0.10;0.10;;;10.60;99.90;;;;;;5029052;28;20045;-75
2022/09/27 04:11:09;;;;;;;0.10;0.10;;;10.60;99.90;;;;;;5028253;28;20042;-75
2022/09/27 04:13:35;;;;;;;0.10;0.10;;;10.60;99.90;;;;;;5040474;28;20098;-75
2022/09/27 04:16:01;;;;;;;0.10;0.10;;;10.60;99.90;;;;;;5030425;28;20140;-75
2022/09/27 04:18:27;;;;;;;0.10;0.10;;;10.60;99.90;;;;;;5028228;28;20501;-74
2022/09/27 04:20:53;;;;;;;0.10;0.10;;;10.60;99.90;;;;;;5029437;28;20095;-74
2022/09/27 04:23:19;;;;;;;0.00;0.00;;;10.60;99.90;;;;;;5025778;28;20162;-74
2022/09/27 04:25:46;;;;;;;0.10;0.10;;;10.60;99.90;;;;;;5030018;28;20123;-74
2022/09/27 04:28:11;;;;;;;0.10;0.10;;;10.60;99.90;;;;;;5025072;28;20041;-74
2022/09/27 04:30:37;;;;;;;0.10;0.10;;;10.60;99.90;;;;;;5026614;28;20060;-74
2022/09/27 04:33:03;;;;;;;0.10;0.10;;;10.60;99.90;;;;;;5035324;28;20041;-74
2022/09/27 04:38:13;;;;;;;0.40;0.40;;;10.50;99.90;;;;;;5029045;28;20489;-74
2022/09/27 04:40:39;;;;;;;0.10;0.10;;;10.50;99.90;;;;;;5026928;28;20423;-74
2022/09/27 04:43:04;;;;;;;0.10;0.10;;;10.50;99.90;;;;;;5018246;28;20029;-74
2022/09/27 04:45:30;;;;;;;0.10;0.10;;;10.50;99.90;;;;;;5020352;28;20504;-74
2022/09/27 04:47:56;;;;;;;0.10;0.10;;;10.50;99.90;;;;;;5030033;28;20048;-74
2022/09/27 04:50:21;;;;;;;0.25;0.25;;;10.50;99.90;;;;;;5029724;28;20099;-74
2022/09/27 04:52:51;;;;;;;0.10;0.10;;;10.50;99.90;;;;;;5024689;28;20045;-74
2022/09/27 04:55:17;;;;;;;0.10;0.10;;;10.50;99.90;;;;;;5026812;28;20061;-74
2022/09/27 04:57:43;;;;;;;0.10;0.10;;;10.50;99.90;;;;;;5016977;28;20041;-74
2022/09/27 05:00:10;;;;;;;0.00;0.00;;;10.50;99.90;;;;;;5026183;28;20401;-74
2022/09/27 05:02:35;;;;;;;0.10;0.10;;;10.50;99.90;;;;;;5030194;28;20083;-74
2022/09/27 05:05:01;;;;;;;0.10;0.10;;;10.40;99.90;;;;;;5032498;28;20061;-74
2022/09/27 05:07:27;;;;;;;0.10;0.10;;;10.50;99.90;;;;;;5024000;28;20391;-74
2022/09/27 05:09:54;;;;;;;0.10;0.10;;;10.50;99.90;;;;;;5027286;28;20437;-74
2022/09/27 05:12:20;;;;;;;0.00;0.00;;;10.50;99.90;;;;;;5030114;28;20060;-74
2022/09/27 05:14:45;;;;;;;0.10;0.10;;;10.60;99.90;;;;;;5026389;28;20145;-74
2022/09/27 05:17:11;;;;;;;0.13;0.13;;;10.50;99.90;;;;;;5031298;28;20129;-74
2022/09/27 05:19:38;;;;;;;0.00;0.00;;;10.50;99.90;;;;;;5023956;28;20041;-74
2022/09/27 05:22:05;;;;;;;0.10;0.10;;;10.50;99.90;;;;;;5044865;28;20049;-74
2022/09/27 05:24:32;;;;;;;0.10;0.10;;;10.50;99.90;;;;;;5032118;28;20095;-74
2022/09/27 05:27:01;;;;;;;0.00;0.00;;;10.40;99.90;;;;;;5046286;28;20091;-73
2022/09/27 05:29:27;;;;;;;0.10;0.10;;;10.40;99.90;;;;;;5032124;28;20049;-73
2022/09/27 05:31:52;;;;;;;0.10;0.10;;;10.40;99.90;;;;;;5017447;28;20819;-73
2022/09/27 05:34:21;;;;;;;0.00;0.00;;;10.40;99.90;;;;;;5032265;28;20138;-74
2022/09/27 05:36:47;;;;;;;0.10;0.10;;;10.40;99.90;;;;;;5029076;28;20041;-74
2022/09/27 05:39:15;;;;;;;0.10;0.10;;;10.40;99.90;;;;;;5026313;28;20069;-74
2022/09/27 05:41:41;;;;;;;0.10;0.10;;;10.40;99.90;;;;;;5038466;28;20092;-74
2022/09/27 05:44:07;;;;;;;0.30;0.30;;;10.40;99.90;;;;;;5035337;28;20064;-74
2022/09/27 05:46:32;;;;;;;0.10;0.10;;;10.40;99.90;;;;;;5025470;28;20037;-75
2022/09/27 05:48:58;;;;;;;0.10;0.10;;;10.40;99.90;;;;;;5038195;28;20052;-75
2022/09/27 05:51:23;;;;;;;0.40;0.40;;;10.50;99.90;;;;;;5042565;28;20547;-75
2022/09/27 05:53:49;;;;;;;0.10;0.10;;;10.50;99.90;;;;;;5026235;28;20099;-74
2022/09/27 05:56:16;;;;;;;0.10;0.10;;;10.50;99.90;;;;;;5027760;28;20049;-74
2022/09/27 05:58:41;;;;;;;0.00;0.00;;;10.50;99.90;;;;;;5036832;28;20041;-74
2022/09/27 06:01:08;;;;;;;0.10;0.10;;;10.50;99.90;;;;;;5027236;28;20092;-74
2022/09/27 06:03:34;;;;;;;0.10;0.10;;;10.50;99.90;;;;;;5023837;28;20046;-74
2022/09/27 06:06:06;;;;;;;0.30;0.30;;;10.50;99.90;;;;;;5031229;28;20049;-74
2022/09/27 06:08:34;;;;;;;0.10;0.10;;;10.60;99.90;;;;;;5041922;28;20045;-74
2022/09/27 06:11:04;;;;;;;0.10;0.10;;;10.60;99.90;;;;;;5035335;28;20390;-74
2022/09/27 06:13:30;;;;;;;0.00;0.00;;;10.50;99.90;;;;;;5032100;28;20053;-74
2022/09/27 06:15:55;;;;;;;0.10;0.10;;;10.60;99.90;;;;;;5048448;28;20090;-74
2022/09/27 06:18:21;;;;;;;0.08;0.08;;;10.60;99.90;;;;;;5022971;28;20046;-74
2022/09/27 06:20:46;;;;;;;0.03;0.03;;;10.60;99.90;;;;;;5028652;28;20053;-74
2022/09/27 06:23:23;;;;;;;0.10;0.10;;;10.70;99.90;;;;;;5024720;28;20509;-74
2022/09/27 06:25:50;;;;;;;0.05;0.05;;;10.70;99.90;;;;;;5020969;28;20050;-74
2022/09/27 06:28:16;;;;;;;0.10;0.10;;;10.80;99.90;;;;;;5023352;28;20100;-74
2022/09/27 06:30:44;;;;;;;0.10;0.10;;;10.80;99.90;;;;;;5028120;28;20065;-74
2022/09/27 06:33:12;;;;;;;0.10;0.10;;;10.80;99.90;;;;;;5022033;28;20041;-74
2022/09/27 06:35:38;;;;;;;0.10;0.10;;;10.80;99.90;;;;;;5024198;28;20041;-74
2022/09/27 06:38:09;;;;;;;0.10;0.10;;;10.80;99.90;;;;;;5028152;28;20068;-73
2022/09/27 06:40:35;;;;;;;0.10;0.10;;;10.90;99.90;;;;;;5025558;28;20052;-74
2022/09/27 06:43:03;;;;;;;0.10;0.10;;;10.90;99.90;;;;;;5022271;28;20033;-74
2022/09/27 06:45:30;;;;;;;0.10;0.10;;;11.00;99.90;;;;;;5027578;28;20557;-74
2022/09/27 06:47:56;;;;;;;0.10;0.10;;;11.00;99.90;;;;;;5027681;28;20050;-74
2022/09/27 06:50:22;;;;;;;0.10;0.10;;;11.00;99.90;;;;;;5022887;28;20500;-73
2022/09/27 06:52:49;;;;;;;0.10;0.10;;;11.00;99.90;;;;;;5032723;28;20060;-74
2022/09/27 06:55:15;;;;;;;0.00;0.00;;;11.10;99.90;;;;;;5029958;28;20100;-74
2022/09/27 07:00:26;;;;;;;0.10;0.10;;;11.10;99.90;;;;;;5033910;28;20054;-75
2022/09/27 07:02:53;;;;;;;0.55;0.55;;;11.20;99.90;;;;;;5028046;28;20108;-74
2022/09/27 07:05:20;;;;;;;0.10;0.10;;;11.20;99.90;;;;;;5025452;28;20503;-74
2022/09/27 07:07:47;;;;;;;0.00;0.00;;;11.20;99.90;;;;;;5025825;28;20090;-74
2022/09/27 07:10:15;;;;;;;0.10;0.10;;;11.20;99.90;;;;;;5031249;28;20045;-74
2022/09/27 07:12:40;;;;;;;0.10;0.10;;;11.20;99.90;;;;;;5033624;28;20516;-74
2022/09/27 07:15:06;;;;;;;0.10;0.10;;;11.20;99.90;;;;;;5036735;28;20041;-74
2022/09/27 07:17:32;;;;;;;0.10;0.10;;;11.10;99.90;;;;;;5053006;28;20381;-74
2022/09/27 07:19:57;;;;;;;0.10;0.10;;;11.10;99.90;;;;;;5045133;28;20132;-74
2022/09/27 07:22:23;;;;;;;0.73;0.73;;;11.10;99.90;;;;;;5029635;28;20041;-74
2022/09/27 07:24:48;;;;;;;0.10;0.10;;;11.10;99.90;;;;;;5050904;28;20049;-74
2022/09/27 07:27:14;;;;;;;0.00;0.00;;;11.10;99.90;;;;;;5037594;28;20065;-74
2022/09/27 07:29:40;;;;;;;0.17;0.17;;;11.10;99.90;;;;;;5051203;28;20049;-74
2022/09/27 07:32:06;;;;;;;0.10;0.10;;;11.10;99.90;;;;;;5029261;28;20033;-74
2022/09/27 07:34:34;;;;;;;0.10;0.10;;;11.20;99.90;;;;;;5026852;28;20474;-74
2022/09/27 07:37:02;;;;;;;0.00;0.00;;;11.20;99.90;;;;;;5031891;28;20071;-74
2022/09/27 07:39:27;;;;;;;0.00;0.00;;;11.20;99.90;;;;;;5030722;28;20048;-74
2022/09/27 07:41:53;;;;;;;0.00;0.00;;;11.20;99.90;;;;;;5030177;28;20041;-74
2022/09/27 07:44:18;;;;;;;0.00;0.00;;;11.30;99.90;;;;;;5038007;28;20056;-74
2022/09/27 07:46:44;;;;;;;0.00;0.00;;;11.40;99.90;;;;;;5034552;28;20140;-75
2022/09/27 07:49:09;;;;;;;0.00;0.00;;;11.60;99.90;;;;;;5031398;28;20773;-72
2022/09/27 07:51:35;;;;;;;0.10;0.10;;;11.60;99.90;;;;;;5040607;28;20049;-72
2022/09/27 07:54:01;;;;;;;0.10;0.10;;;11.60;99.90;;;;;;5034556;28;20052;-72
2022/09/27 07:56:27;;;;;;;0.10;0.10;;;11.60;99.90;;;;;;5030742;28;20503;-73
2022/09/27 07:58:52;;;;;;;0.10;0.10;;;11.60;99.90;;;;;;5039461;28;20049;-73
2022/09/27 08:01:18;;;;;;;0.00;0.00;;;11.50;99.90;;;;;;5030308;28;20060;-73
2022/09/27 08:03:45;;;;;;;0.10;0.10;;;11.60;99.90;;;;;;5031951;28;20472;-73
2022/09/27 08:06:11;;;;;;;0.10;0.10;;;11.60;99.90;;;;;;5042071;28;20128;-73
2022/09/27 08:08:37;;;;;;;0.10;0.10;;;11.60;99.90;;;;;;5031821;28;20053;-73
2022/09/27 08:11:17;;;;;;;1.00;0.88;;;11.60;99.90;;;;;;5012476;28;20037;-73
2022/09/27 08:13:43;;;;;;;0.10;0.10;;;11.50;99.90;;;;;;5027122;28;20061;-73
2022/09/27 08:16:10;;;;;;;0.10;0.10;;;11.60;99.90;;;;;;5040412;28;20485;-73
2022/09/27 08:18:36;;;;;;;0.10;0.10;;;11.70;99.90;;;;;;5049851;28;20058;-73
2022/09/27 08:21:02;;;;;;;0.10;0.10;;;11.70;99.90;;;;;;5037907;28;20049;-73
2022/09/27 08:23:28;;;;;;;0.00;0.00;;;11.70;99.90;;;;;;5034711;28;20539;-73
2022/09/27 08:25:56;;;;;;;0.10;0.10;;;11.70;99.90;;;;;;5030087;28;20393;-73
2022/09/27 08:28:22;;;;;;;0.10;0.10;;;11.70;99.90;;;;;;5030463;28;20436;-73
2022/09/27 08:30:48;;;;;;;0.10;0.10;;;11.80;99.90;;;;;;5036020;28;20041;-73
2022/09/27 08:33:14;;;;;;;0.00;0.00;;;11.70;99.90;;;;;;5017878;28;20060;-74
2022/09/27 08:35:39;;;;;;;0.10;0.10;;;11.80;99.90;;;;;;5025058;28;20041;-74
2022/09/27 08:38:05;;;;;;;0.03;0.03;;;11.80;99.90;;;;;;5025725;28;20057;-74
2022/09/27 08:40:45;;;;;;;0.10;0.10;;;11.80;99.90;;;;;;5013810;28;20042;-75
2022/09/27 08:43:22;;;;;;;0.10;0.10;;;11.80;99.90;;;;;;5028125;28;20458;-74
2022/09/27 08:46:30;;;;;;;0.00;0.00;;;11.90;99.90;;;;;;5018534;28;20053;-75
2022/09/27 08:49:08;;;;;;;0.10;0.10;;;11.90;99.90;;;;;;5035533;28;20132;-75
2022/09/27 08:51:35;;;;;;;0.10;0.10;;;11.90;99.90;;;;;;5024433;28;20095;-74
2022/09/27 08:54:21;;;;;;;0.00;0.00;;;11.80;99.90;;;;;;5027557;28;20069;-74
2022/09/27 08:56:50;;;;;;;0.10;0.10;;;11.80;99.90;;;;;;5022264;28;20053;-75
2022/09/27 08:59:26;;;;;;;0.10;0.10;;;11.80;99.90;;;;;;5020405;28;20087;-75
2022/09/27 09:01:53;;;;;;;0.10;0.10;;;11.80;99.90;;;;;;5024010;28;20061;-75
2022/09/27 09:04:38;;;;;;;0.00;0.00;;;11.90;99.90;;;;;;5036372;28;20042;-75
2022/09/27 09:07:25;;;;;;;0.00;0.00;;;12.00;99.90;;;;;;5025587;28;20481;-75
2022/09/27 09:13:52;;;;;;;0.00;0.00;;;12.10;99.90;;;;;;5020232;28;20053;-74
2022/09/27 09:16:34;;;;;;;0.10;0.10;;;12.20;99.90;;;;;;5011672;28;20131;-74
2022/09/27 09:19:30;;;;;;;0.10;0.10;;;12.70;99.90;;;;;;5022836;28;20558;-72
2022/09/27 09:22:18;;;;;;;0.08;0.08;;;13.00;99.90;;;;;;5034918;28;20045;-72
2022/09/27 09:24:46;;;;;;;0.10;0.10;;;13.30;99.90;;;;;;5020203;28;20049;-72
2022/09/27 09:27:24;;;;;;;0.10;0.10;;;13.40;99.90;;;;;;5022359;28;20413;-72
2022/09/27 09:30:17;;;;;;;0.10;0.10;;;13.40;99.90;;;;;;5028967;28;20068;-72
2022/09/27 09:32:57;;;;;;;0.10;0.10;;;13.30;99.90;;;;;;5024107;28;20535;-71
2022/09/27 09:35:39;;;;;;;0.08;0.08;;;13.50;99.90;;;;;;5019326;28;20084;-71
2022/09/27 09:38:17;;;;;;;0.10;0.10;;;13.70;99.90;;;;;;5037225;28;20071;-74
2022/09/27 09:40:54;;;;;;;0.08;0.08;;;13.70;99.90;;;;;;5028121;28;20413;-74
2022/09/27 09:43:45;;;;;;;0.00;0.00;;;13.60;99.90;;;;;;5020420;28;20058;-74
2022/09/27 09:46:20;;;;;;;0.63;0.63;;;13.30;99.90;;;;;;5036015;28;20052;-74
2022/09/27 09:48:58;;;;;;;0.10;0.10;;;12.90;99.90;;;;;;5030424;28;20053;-73
2022/09/27 09:51:28;;;;;;;0.10;0.10;;;12.80;99.90;;;;;;5031329;28;20496;-74
2022/09/27 09:54:20;;;;;;;0.00;0.00;;;12.60;99.90;;;;;;5017732;28;20049;-73
2022/09/27 09:56:52;;;;;;;0.10;0.10;;;12.50;99.90;;;;;;5018968;28;20118;-72
2022/09/27 09:59:34;;;;;;;0.20;0.20;;;12.30;99.90;;;;;;5027010;28;20041;-73
2022/09/27 10:02:17;;;;;;;0.10;0.10;;;12.40;99.90;;;;;;5024704;28;20064;-73
2022/09/27 10:04:43;;;;;;;0.10;0.10;;;12.40;99.90;;;;;;5028286;28;20056;-73
2022/09/27 10:07:09;;;;;;;0.10;0.10;;;12.40;99.90;;;;;;5022647;28;20417;-75
2022/09/27 10:09:35;;;;;;;0.08;0.08;;;12.50;99.90;;;;;;5029697;28;20579;-75
2022/09/27 10:12:01;;;;;;;0.10;0.10;;;12.50;99.90;;;;;;5031232;28;20056;-74
2022/09/27 10:14:27;;;;;;;0.10;0.10;;;12.60;99.90;;;;;;5023672;28;20045;-75
2022/09/27 10:16:58;;;;;;;0.20;0.20;;;12.80;99.90;;;;;;5026510;28;20091;-74
2022/09/27 10:19:32;;;;;;;0.00;0.00;;;12.90;99.90;;;;;;5020319;28;20053;-74
2022/09/27 10:22:02;;;;;;;0.10;0.10;;;13.00;99.90;;;;;;5024083;28;20051;-74
2022/09/27 10:24:28;;;;;;;0.08;0.08;;;13.10;99.90;;;;;;5025698;28;20038;-74
2022/09/27 10:26:58;;;;;;;0.10;0.10;;;13.10;99.90;;;;;;5037622;28;20063;-74
2022/09/27 10:29:30;;;;;;;0.00;0.00;;;13.00;99.90;;;;;;5037804;28;20762;-74
2022/09/27 10:31:57;;;;;;;0.00;0.00;;;13.00;99.90;;;;;;5026454;28;20081;-74
2022/09/27 10:34:28;;;;;;;0.10;0.10;;;13.00;99.90;;;;;;5022759;28;20042;-74
2022/09/27 10:37:12;;;;;;;0.10;0.10;;;12.90;99.90;;;;;;5036145;28;20037;-74
2022/09/27 10:39:40;;;;;;;0.10;0.10;;;12.70;99.90;;;;;;5029355;28;20045;-74
2022/09/27 10:42:33;;;;;;;0.08;0.08;;;12.60;99.90;;;;;;5027287;28;20049;-74
2022/09/27 10:45:44;;;;;;;0.10;0.10;;;12.50;99.90;;;;;;5011957;28;20383;-74
2022/09/27 10:48:24;;;;;;;0.10;0.10;;;12.60;99.90;;;;;;5028574;28;20054;-75
2022/09/27 10:51:00;;;;;;;0.00;0.00;;;13.00;99.90;;;;;;5039615;28;20121;-75
2022/09/27 10:53:28;;;;;;;0.40;0.30;;;13.10;99.90;;;;;;5031357;28;20054;-74
2022/09/27 10:55:54;;;;;;;0.10;0.10;;;13.20;99.90;;;;;;5036179;28;20064;-75
2022/09/27 10:58:35;;;;;;;0.03;0.03;;;13.30;99.90;;;;;;5031611;28;20052;-75
2022/09/27 11:01:05;;;;;;;0.10;0.10;;;13.20;99.90;;;;;;5044537;28;20099;-75
2022/09/27 11:03:35;;;;;;;0.10;0.10;;;13.20;99.90;;;;;;5037630;28;20061;-75
2022/09/27 11:06:23;;;;;;;0.00;0.00;;;13.20;99.90;;;;;;5031599;28;20125;-75
2022/09/27 11:08:53;;;;;;;0.10;0.10;;;13.10;99.90;;;;;;5041361;28;20392;-75
2022/09/27 11:11:25;;;;;;;0.10;0.10;;;13.10;99.90;;;;;;5025478;28;20085;-75
2022/09/27 11:14:03;;;;;;;0.10;0.10;;;13.00;99.90;;;;;;5032298;28;20620;-75
2022/09/27 11:17:10;;;;;;;0.10;0.10;;;13.10;99.90;;;;;;5033150;28;20903;-75
2022/09/27 11:19:55;;;;;;;0.10;0.10;;;13.10;99.90;;;;;;5026453;28;20096;-75
2022/09/27 11:22:25;;;;;;;0.00;0.00;;;13.10;99.90;;;;;;5043641;28;20096;-75
2022/09/27 11:25:09;;;;;;;0.08;0.08;;;13.10;99.90;;;;;;5027909;28;20042;-75
2022/09/27 11:27:53;;;;;;;0.70;0.70;;;13.10;99.90;;;;;;5025726;28;20045;-73
2022/09/27 11:30:21;;;;;;;0.10;0.10;;;13.10;99.90;;;;;;5031398;28;20049;-73
2022/09/27 11:33:22;;;;;;;0.00;0.00;;;13.10;99.90;;;;;;5038553;28;20038;-73
2022/09/27 11:36:13;;;;;;;0.20;0.20;;;13.10;99.90;;;;;;5031593;28;20053;-72
2022/09/27 11:39:17;;;;;;;0.00;0.00;;;13.20;99.90;;;;;;5032322;28;20493;-74
2022/09/27 11:42:02;;;;;;;0.00;0.00;;;13.50;99.90;;;;;;5028595;28;20045;-74
2022/09/27 11:44:57;;;;;;;0.10;0.10;;;13.70;99.90;;;;;;5026208;28;20115;-73
2022/09/27 11:47:44;;;;;;;0.10;0.10;;;14.00;99.90;;;;;;5040198;28;20061;-74
2022/09/27 11:50:39;;;;;;;0.10;0.10;;;14.20;99.90;;;;;;5019360;28;20480;-74
2022/09/27 11:53:23;;;;;;;0.10;0.10;;;14.40;99.90;;;;;;5026477;28;20033;-74
2022/09/27 11:55:52;;;;;;;0.10;0.10;;;14.70;99.90;;;;;;5031836;28;20088;-73
2022/09/27 11:58:35;;;;;;;0.10;0.10;;;14.90;99.90;;;;;;5023272;28;20780;-73
2022/09/27 12:01:16;;;;;;;0.00;0.00;;;15.00;99.90;;;;;;5020457;28;20563;-73
2022/09/27 12:03:52;;;;;;;0.10;0.10;;;14.80;99.90;;;;;;5031852;28;20038;-74
2022/09/27 12:06:32;;;;;;;0.10;0.10;;;14.50;99.90;;;;;;5028800;28;20107;-74
2022/09/27 12:09:06;;;;;;;0.00;0.00;;;14.40;99.90;;;;;;5025126;28;20057;-73
2022/09/27 12:11:37;;;;;;;0.10;0.10;;;14.10;99.90;;;;;;5028541;28;20059;-74
2022/09/27 12:14:09;;;;;;;0.25;0.25;;;13.70;99.90;;;;;;5023134;28;20045;-73
2022/09/27 12:16:37;;;;;;;0.10;0.10;;;13.40;99.90;;;;;;5026131;28;20046;-73
2022/09/27 12:19:10;;;;;;;0.00;0.00;;;13.20;99.90;;;;;;5018360;28;20562;-71
2022/09/27 12:21:36;;;;;;;0.05;0.05;;;13.40;99.90;;;;;;5015924;28;20053;-71
2022/09/27 12:24:02;;;;;;;0.20;0.20;;;14.10;99.90;;;;;;5027217;28;20037;-72
2022/09/27 12:26:39;;;;;;;0.05;0.05;;;14.40;99.90;;;;;;5017263;28;20084;-73
2022/09/27 12:29:12;;;;;;;0.10;0.10;;;14.20;99.90;;;;;;5020486;28;20052;-72
2022/09/27 12:31:58;;;;;;;0.10;0.10;;;13.80;99.90;;;;;;5047825;28;20098;-72
2022/09/27 12:34:51;;;;;;;0.00;0.00;;;13.60;99.90;;;;;;5035732;28;20486;-72
2022/09/27 12:37:30;;;;;;;0.10;0.10;;;13.30;99.90;;;;;;5023738;28;20056;-72
2022/09/27 12:40:05;;;;;;;0.10;0.10;;;13.10;99.90;;;;;;5033626;28;20304;-71
2022/09/27 12:42:37;;;;;;;0.10;0.10;;;12.90;99.90;;;;;;5028636;28;20048;-72
2022/09/27 12:45:04;;;;;;;0.00;0.00;;;12.60;99.90;;;;;;5028284;28;20081;-72
2022/09/27 12:47:58;;;;;;;0.00;0.00;;;12.30;99.90;;;;;;5036044;28;20052;-72
2022/09/27 12:50:42;;;;;;;0.10;0.10;;;12.10;99.90;;;;;;5025002;28;20072;-72
2022/09/27 12:53:43;;;;;;;0.10;0.10;;;12.00;99.90;;;;;;5035344;28;20491;-72
2022/09/27 12:56:12;;;;;;;0.17;0.17;;;11.80;99.90;;;;;;5039405;28;20033;-72
2022/09/27 12:59:09;;;;;;;0.10;0.10;;;11.70;99.90;;;;;;5026278;28;20116;-72
2022/09/27 13:01:54;;;;;;;0.00;0.00;;;11.70;99.90;;;;;;5031046;28;20060;-72
2022/09/27 13:04:49;;;;;;;0.00;0.00;;;11.70;99.90;;;;;;5016300;28;20060;-72
2022/09/27 13:08:11;;;;;;;0.10;0.10;;;11.70;99.90;;;;;;5028869;28;20386;-72
2022/09/27 13:10:46;;;;;;;0.10;0.10;;;11.70;99.90;;;;;;5037953;28;20041;-72
2022/09/27 13:13:15;;;;;;;0.00;0.00;;;11.90;99.90;;;;;;5041024;28;20057;-72
2022/09/27 13:15:44;;;;;;;0.05;0.05;;;12.00;99.90;;;;;;5032671;28;20607;-73
2022/09/27 13:18:50;;;;;;;0.30;0.30;;;12.20;99.90;;;;;;5040813;28;20041;-72
2022/09/27 13:21:47;;;;;;;0.10;0.10;;;12.30;99.90;;;;;;5026145;28;20037;-72
2022/09/27 13:24:41;;;;;;;0.10;0.10;;;12.60;99.90;;;;;;5036771;28;20041;-72